Time;durP1;ratioP1;P1;durP2;ratioP2;P2;SDS_P1;SDS_P2;PMS_P1;PMS_P2;Temp;Humidity;BMP_temperature;BMP_pressure;BME280_temperature;BME280_humidity;BME280_pressure;Samples;Min_cycle;Max_cycle;Signal;HPM_P1;HPM_P2
2022/06/14 00:01:22;;;;;;;12.47;3.27;;;13.80;52.70;;;;;;5055341;28;46311;-63
2022/06/14 00:03:48;;;;;;;11.17;3.53;;;13.80;52.90;;;;;;5053759;28;46561;-62
2022/06/14 00:06:23;;;;;;;7.10;3.67;;;13.80;53.20;;;;;;5052530;28;46417;-62
2022/06/14 00:08:48;;;;;;;6.07;3.60;;;13.70;53.40;;;;;;5050573;28;46449;-63
2022/06/14 00:11:21;;;;;;;8.00;3.63;;;13.60;53.70;;;;;;5049350;28;47071;-63
2022/06/14 00:13:48;;;;;;;8.07;3.70;;;13.60;54.10;;;;;;5050960;28;46363;-64
2022/06/14 00:16:14;;;;;;;7.43;3.27;;;13.50;54.30;;;;;;5051994;28;46432;-63
2022/06/14 00:18:40;;;;;;;10.37;3.97;;;13.40;54.80;;;;;;5052773;28;46441;-64
2022/06/14 00:21:06;;;;;;;7.30;3.93;;;13.40;54.80;;;;;;5051733;28;47194;-62
2022/06/14 00:23:33;;;;;;;7.47;3.67;;;13.30;54.70;;;;;;5055053;28;45925;-63
2022/06/14 00:25:59;;;;;;;5.23;3.90;;;13.30;55.00;;;;;;5047098;28;46470;-62
2022/06/14 00:28:28;;;;;;;7.47;3.97;;;13.30;55.30;;;;;;5049634;28;46324;-63
2022/06/14 00:30:57;;;;;;;5.20;3.50;;;13.30;55.60;;;;;;5046443;28;46392;-63
2022/06/14 00:33:22;;;;;;;6.90;3.30;;;13.30;55.50;;;;;;5047222;28;46675;-63
2022/06/14 00:35:48;;;;;;;5.87;3.60;;;13.20;55.90;;;;;;5052244;28;46469;-63
2022/06/14 00:38:15;;;;;;;9.33;3.37;;;13.20;56.20;;;;;;5049616;28;46365;-63
2022/06/14 00:40:48;;;;;;;8.80;4.13;;;13.10;57.80;;;;;;5049625;28;48975;-63
2022/06/14 00:43:16;;;;;;;4.40;3.40;;;13.10;56.70;;;;;;5050171;28;46334;-63
2022/06/14 00:45:42;;;;;;;7.23;3.50;;;13.10;56.90;;;;;;5049046;28;45796;-63
2022/06/14 00:48:20;;;;;;;6.00;3.70;;;13.10;57.00;;;;;;5053164;28;46343;-62
2022/06/14 00:51:00;;;;;;;6.90;3.60;;;13.00;57.20;;;;;;5055067;28;47277;-62
2022/06/14 00:53:33;;;;;;;6.73;3.83;;;13.00;57.30;;;;;;5054926;28;46347;-62
2022/06/14 00:56:04;;;;;;;6.83;3.27;;;13.00;57.20;;;;;;5062417;28;46187;-62
2022/06/14 00:58:36;;;;;;;8.10;2.80;;;13.00;57.40;;;;;;5046759;28;46480;-64
2022/06/14 01:01:05;;;;;;;5.83;3.50;;;12.90;57.60;;;;;;5046434;28;47199;-63
2022/06/14 01:03:39;;;;;;;7.80;3.47;;;12.90;57.70;;;;;;5047321;28;46472;-62
2022/06/14 01:06:13;;;;;;;5.80;3.77;;;13.00;57.90;;;;;;5050908;28;46461;-63
2022/06/14 01:08:49;;;;;;;6.07;3.73;;;12.90;57.90;;;;;;5053087;28;46358;-63
2022/06/14 01:11:36;;;;;;;7.73;3.77;;;12.80;58.00;;;;;;5050029;28;46846;-63
2022/06/14 01:14:05;;;;;;;12.03;3.30;;;12.80;58.30;;;;;;5050355;28;46510;-63
2022/06/14 01:16:32;;;;;;;5.73;3.33;;;12.80;58.40;;;;;;5054626;28;46462;-62
2022/06/14 01:18:58;;;;;;;4.63;2.10;;;12.70;58.60;;;;;;5049399;28;46251;-63
2022/06/14 01:21:25;;;;;;;3.70;2.37;;;12.60;59.00;;;;;;5046760;28;46477;-62
2022/06/14 01:23:51;;;;;;;3.80;2.63;;;12.50;59.50;;;;;;5047538;28;46444;-63
2022/06/14 01:26:23;;;;;;;14.63;3.43;;;12.50;60.00;;;;;;5046241;28;46397;-62
2022/06/14 01:28:53;;;;;;;6.63;3.60;;;12.40;60.40;;;;;;5048428;28;46781;-63
2022/06/14 01:31:20;;;;;;;5.03;3.10;;;12.40;60.80;;;;;;5045712;28;46510;-63
2022/06/14 01:33:51;;;;;;;4.70;3.33;;;12.30;61.10;;;;;;5047817;28;46283;-64
2022/06/14 01:36:27;;;;;;;5.17;3.43;;;12.20;61.20;;;;;;5045753;28;46429;-64
2022/06/14 01:38:55;;;;;;;8.10;3.73;;;12.20;61.30;;;;;;5047022;28;46545;-64
2022/06/14 01:41:36;;;;;;;7.73;3.20;;;12.20;61.30;;;;;;5044211;28;46636;-64
2022/06/14 01:44:10;;;;;;;5.70;2.80;;;12.20;61.70;;;;;;5044033;28;46422;-63
2022/06/14 01:46:59;;;;;;;4.53;3.00;;;12.10;61.50;;;;;;5050243;28;46453;-65
2022/06/14 01:53:02;;;;;;;5.20;2.60;;;12.10;61.80;;;;;;5049075;28;46856;-64
2022/06/14 01:55:46;;;;;;;6.13;3.17;;;12.00;61.60;;;;;;5044956;28;46323;-64
2022/06/14 01:58:30;;;;;;;3.80;2.60;;;11.90;61.40;;;;;;5046648;28;46473;-64
2022/06/14 02:01:14;;;;;;;6.50;3.57;;;11.90;61.70;;;;;;5051900;28;46288;-65
2022/06/14 02:07:18;;;;;;;6.63;3.90;;;11.80;61.70;;;;;;5049039;28;46502;-65
2022/06/14 02:10:11;;;;;;;17.20;3.70;;;11.80;61.90;;;;;;5047477;28;46368;-64
2022/06/14 02:12:42;;;;;;;11.93;3.23;;;11.80;61.60;;;;;;5048689;28;46398;-64
2022/06/14 02:15:22;;;;;;;6.13;3.53;;;11.80;61.20;;;;;;5049416;28;46654;-64
2022/06/14 02:18:12;;;;;;;6.80;3.77;;;11.80;61.70;;;;;;5050799;28;46621;-64
2022/06/14 02:21:01;;;;;;;5.00;2.90;;;11.80;61.70;;;;;;5051135;28;45881;-64
2022/06/14 02:23:29;;;;;;;6.20;3.57;;;11.80;61.70;;;;;;5049525;28;46307;-64
2022/06/14 02:26:02;;;;;;;8.07;4.10;;;11.70;61.60;;;;;;5050817;28;46139;-64
2022/06/14 02:28:44;;;;;;;7.33;3.67;;;11.70;61.80;;;;;;5048938;28;45850;-64
2022/06/14 02:31:18;;;;;;;5.10;3.40;;;11.70;62.30;;;;;;5049247;28;46161;-64
2022/06/14 02:34:00;;;;;;;7.60;3.97;;;11.50;62.30;;;;;;5051618;28;46456;-64
2022/06/14 02:36:46;;;;;;;4.83;3.40;;;11.50;62.80;;;;;;5051175;28;46640;-63
2022/06/14 02:39:17;;;;;;;8.10;3.10;;;11.40;63.00;;;;;;5048047;28;46397;-64
2022/06/14 02:41:55;;;;;;;7.50;3.77;;;11.40;63.10;;;;;;5051947;28;46412;-65
2022/06/14 02:44:36;;;;;;;5.97;3.93;;;11.30;63.30;;;;;;5053110;28;46435;-65
2022/06/14 02:47:30;;;;;;;13.20;2.87;;;11.10;63.40;;;;;;5049338;28;46486;-64
2022/06/14 02:50:10;;;;;;;11.10;3.40;;;11.00;63.80;;;;;;5051603;28;46383;-65
2022/06/14 02:52:43;;;;;;;18.00;4.07;;;10.90;63.90;;;;;;5050968;28;46441;-64
2022/06/14 02:55:28;;;;;;;10.73;4.30;;;10.90;64.10;;;;;;5048558;28;46421;-64
2022/06/14 02:58:14;;;;;;;6.73;4.10;;;10.80;64.10;;;;;;5048026;28;46706;-64
2022/06/14 03:00:48;;;;;;;7.77;3.63;;;10.80;64.00;;;;;;5050296;28;46399;-63
2022/06/14 03:03:28;;;;;;;13.63;4.30;;;10.80;63.80;;;;;;5054495;28;46327;-64
2022/06/14 03:06:12;;;;;;;9.43;4.17;;;10.80;63.60;;;;;;5049565;28;46394;-63
2022/06/14 03:09:15;;;;;;;6.20;3.30;;;10.80;63.80;;;;;;5048629;28;47142;-63
2022/06/14 03:12:15;;;;;;;5.23;3.20;;;10.80;64.00;;;;;;5054434;28;46400;-63
2022/06/14 03:14:54;;;;;;;11.33;3.97;;;10.70;63.90;;;;;;5052371;28;46394;-63
2022/06/14 03:17:33;;;;;;;9.93;4.10;;;10.80;63.80;;;;;;5068699;27;47076;-63
2022/06/14 03:20:18;;;;;;;18.53;4.17;;;10.80;63.60;;;;;;5048944;28;47041;-64
2022/06/14 03:22:55;;;;;;;8.20;3.33;;;10.80;63.50;;;;;;5051954;28;45806;-64
2022/06/14 03:25:29;;;;;;;8.70;4.37;;;10.80;63.50;;;;;;5053380;28;45777;-63
2022/06/14 03:28:04;;;;;;;8.43;3.80;;;10.80;63.50;;;;;;5054023;28;46704;-63
2022/06/14 03:30:35;;;;;;;8.13;3.50;;;10.80;63.50;;;;;;5054399;28;46598;-63
2022/06/14 03:33:05;;;;;;;12.63;3.80;;;10.80;63.60;;;;;;5053532;28;46398;-63
2022/06/14 03:35:38;;;;;;;9.50;3.27;;;10.80;63.40;;;;;;5057757;28;46576;-63
2022/06/14 03:38:19;;;;;;;8.60;2.90;;;10.80;63.40;;;;;;5051870;28;45859;-64
2022/06/14 03:40:46;;;;;;;7.87;2.70;;;10.80;63.40;;;;;;5054923;27;46277;-63
2022/06/14 03:43:13;;;;;;;9.90;3.40;;;10.80;63.40;;;;;;5056046;28;46402;-64
2022/06/14 03:45:51;;;;;;;10.63;3.40;;;10.80;63.30;;;;;;5051304;28;46531;-64
2022/06/14 03:48:17;;;;;;;4.10;2.83;;;10.90;63.30;;;;;;5055911;28;46267;-65
2022/06/14 03:50:45;;;;;;;6.57;3.10;;;11.00;63.00;;;;;;5050094;28;46334;-64
2022/06/14 03:53:37;;;;;;;8.63;3.03;;;11.10;62.90;;;;;;5048688;28;46468;-64
2022/06/14 03:56:11;;;;;;;6.70;3.23;;;11.20;62.80;;;;;;5052714;28;46298;-64
2022/06/14 03:58:46;;;;;;;8.60;3.00;;;11.30;62.40;;;;;;5053384;28;46453;-62
2022/06/14 04:01:26;;;;;;;6.43;3.10;;;11.40;62.30;;;;;;5052620;28;46239;-65
2022/06/14 04:04:33;;;;;;;7.03;2.70;;;11.50;62.00;;;;;;5050986;28;46390;-64
2022/06/14 04:07:11;;;;;;;5.23;2.70;;;11.60;62.00;;;;;;5051357;28;46646;-64
2022/06/14 04:10:02;;;;;;;7.40;3.30;;;11.70;61.70;;;;;;5054862;28;46487;-65
2022/06/14 04:12:56;;;;;;;4.63;2.47;;;11.70;61.70;;;;;;5053836;28;47252;-63
2022/06/14 04:15:25;;;;;;;4.00;2.40;;;11.80;61.40;;;;;;5052736;28;46472;-65
2022/06/14 04:18:38;;;;;;;5.17;2.73;;;12.00;60.90;;;;;;5052413;28;46325;-64
2022/06/14 04:21:17;;;;;;;6.27;2.50;;;12.20;60.60;;;;;;5046897;28;46865;-64
2022/06/14 04:23:49;;;;;;;5.73;2.93;;;12.30;60.00;;;;;;5054064;28;48198;-64
2022/06/14 04:26:45;;;;;;;5.10;2.83;;;12.40;59.80;;;;;;5053875;28;46507;-65
2022/06/14 04:29:36;;;;;;;6.40;2.63;;;12.60;59.70;;;;;;5053089;28;46370;-62
2022/06/14 04:32:15;;;;;;;9.87;3.33;;;12.70;59.30;;;;;;5052871;28;46552;-65
2022/06/14 04:34:49;;;;;;;7.90;3.20;;;12.90;60.10;;;;;;5053150;28;46709;-65
2022/06/14 04:37:29;;;;;;;7.40;3.07;;;13.10;58.80;;;;;;5071794;27;46490;-62
2022/06/14 04:40:01;;;;;;;15.43;3.87;;;13.20;58.30;;;;;;5053637;28;46572;-64
2022/06/14 04:42:40;;;;;;;7.23;3.43;;;13.50;57.40;;;;;;5049495;28;46378;-63
2022/06/14 04:45:07;;;;;;;5.07;2.53;;;14.90;56.10;;;;;;5053073;28;47205;-64
2022/06/14 04:47:57;;;;;;;6.83;2.20;;;17.00;53.10;;;;;;5051644;28;46399;-64
2022/06/14 04:50:32;;;;;;;4.73;2.63;;;18.90;47.20;;;;;;5052540;28;46684;-64
2022/06/14 04:53:19;;;;;;;6.17;2.37;;;20.50;43.70;;;;;;5054066;28;46300;-63
2022/06/14 04:55:47;;;;;;;7.17;2.13;;;22.00;39.90;;;;;;5056018;28;47678;-63
2022/06/14 04:58:42;;;;;;;10.10;2.70;;;23.10;37.60;;;;;;5051800;28;46480;-63
2022/06/14 05:01:16;;;;;;;7.20;2.30;;;24.20;33.80;;;;;;5032790;28;46534;-62
2022/06/14 05:04:06;;;;;;;6.10;2.80;;;25.10;32.20;;;;;;5052034;28;46424;-63
2022/06/14 05:06:47;;;;;;;7.07;2.90;;;25.90;29.20;;;;;;5047955;27;46418;-64
2022/06/14 05:09:18;;;;;;;7.40;2.30;;;26.60;27.90;;;;;;5050882;28;46459;-64
2022/06/14 05:11:57;;;;;;;4.40;2.30;;;27.20;27.20;;;;;;5053757;28;46349;-64
2022/06/14 05:14:37;;;;;;;5.37;2.27;;;27.60;25.30;;;;;;5051198;28;46370;-64
2022/06/14 05:17:29;;;;;;;4.43;2.60;;;28.10;24.30;;;;;;5050286;28;46465;-64
2022/06/14 05:20:02;;;;;;;12.23;3.17;;;28.40;23.70;;;;;;5048107;28;46379;-63
2022/06/14 05:22:33;;;;;;;5.80;2.70;;;28.70;22.60;;;;;;5049572;28;46646;-63
2022/06/14 05:25:00;;;;;;;4.53;2.50;;;29.00;22.00;;;;;;5050644;28;46251;-63
2022/06/14 05:27:41;;;;;;;7.83;2.97;;;29.00;21.30;;;;;;5050184;28;47257;-64
2022/06/14 05:30:28;;;;;;;7.20;3.20;;;29.10;20.80;;;;;;5050419;28;46311;-61
2022/06/14 05:33:02;;;;;;;9.13;3.03;;;29.00;20.30;;;;;;5047866;28;46652;-62
2022/06/14 05:35:41;;;;;;;7.13;3.53;;;29.20;20.00;;;;;;5049907;28;46598;-61
2022/06/14 05:38:36;;;;;;;7.43;2.57;;;29.50;19.30;;;;;;5050599;28;47163;-62
2022/06/14 05:41:27;;;;;;;8.90;3.27;;;30.10;17.60;;;;;;5052851;28;46435;-62
2022/06/14 05:44:07;;;;;;;6.93;3.40;;;29.80;17.50;;;;;;5046482;28;46455;-62
2022/06/14 05:46:38;;;;;;;6.90;3.07;;;29.70;16.20;;;;;;5051819;28;46746;-62
2022/06/14 05:49:13;;;;;;;12.10;3.30;;;29.80;16.40;;;;;;5049072;28;46327;-62
2022/06/14 05:51:48;;;;;;;7.00;3.33;;;29.40;15.80;;;;;;5052837;28;45834;-61
2022/06/14 05:54:29;;;;;;;10.00;3.13;;;28.90;15.70;;;;;;5052676;28;46373;-62
2022/06/14 05:57:11;;;;;;;5.10;2.90;;;26.70;18.90;;;;;;5052156;28;46479;-59
2022/06/14 05:59:58;;;;;;;8.57;2.60;;;24.80;23.20;;;;;;5051456;28;46305;-63
2022/06/14 06:02:30;;;;;;;9.60;3.07;;;23.30;25.60;;;;;;5051624;28;46270;-63
2022/06/14 06:05:05;;;;;;;7.70;2.97;;;22.50;26.70;;;;;;5053020;28;46372;-61
2022/06/14 06:07:34;;;;;;;7.40;3.57;;;22.10;27.30;;;;;;5052143;28;45914;-63
2022/06/14 06:10:12;;;;;;;11.80;3.33;;;21.90;26.90;;;;;;5054039;28;47050;-64
2022/06/14 06:13:02;;;;;;;7.97;3.70;;;21.80;26.60;;;;;;5050306;28;45760;-61
2022/06/14 06:15:41;;;;;;;9.13;4.20;;;21.70;26.70;;;;;;5054159;28;46424;-62
2022/06/14 06:18:13;;;;;;;9.33;3.70;;;21.50;26.70;;;;;;5048564;28;46570;-62
2022/06/14 06:21:01;;;;;;;9.97;3.43;;;21.10;27.30;;;;;;5049137;28;47051;-61
2022/06/14 06:23:44;;;;;;;9.23;3.77;;;21.00;27.30;;;;;;5050212;28;46365;-61
2022/06/14 06:26:12;;;;;;;10.80;3.30;;;20.70;27.60;;;;;;5047063;28;46469;-61
2022/06/14 06:28:43;;;;;;;9.53;3.40;;;20.60;27.80;;;;;;5050370;28;46421;-61
2022/06/14 06:31:15;;;;;;;10.90;3.70;;;20.40;27.70;;;;;;5047782;28;47181;-62
2022/06/14 06:33:54;;;;;;;8.60;3.90;;;20.20;27.90;;;;;;5054313;28;46402;-62
2022/06/14 06:36:38;;;;;;;12.80;3.73;;;20.20;27.70;;;;;;5053240;28;46247;-61
2022/06/14 06:39:24;;;;;;;7.57;3.30;;;20.20;27.90;;;;;;5050588;28;46422;-63
2022/06/14 06:41:56;;;;;;;8.93;3.00;;;20.20;27.40;;;;;;5052348;28;47018;-62
2022/06/14 06:44:39;;;;;;;7.50;3.37;;;20.30;27.10;;;;;;5054535;28;46400;-62
2022/06/14 06:47:23;;;;;;;8.73;3.67;;;20.30;26.90;;;;;;5055732;28;46375;-62
2022/06/14 06:50:01;;;;;;;6.83;3.03;;;20.40;26.60;;;;;;5056436;28;46577;-62
2022/06/14 06:53:09;;;;;;;7.77;2.93;;;20.20;26.60;;;;;;5053864;28;46409;-62
2022/06/14 06:55:45;;;;;;;9.60;3.50;;;20.20;26.10;;;;;;5052948;28;46374;-62
2022/06/14 06:58:25;;;;;;;12.57;3.37;;;20.20;26.10;;;;;;5054964;28;45836;-61
2022/06/14 07:00:56;;;;;;;15.83;3.80;;;20.30;25.90;;;;;;5060054;28;46457;-61
2022/06/14 07:03:53;;;;;;;5.73;3.33;;;20.20;25.90;;;;;;5054589;28;47135;-60
2022/06/14 07:06:26;;;;;;;11.07;3.30;;;20.20;26.00;;;;;;5054117;28;45829;-62
2022/06/14 07:08:57;;;;;;;6.70;3.20;;;20.20;26.00;;;;;;5053618;28;45768;-62
2022/06/14 07:11:29;;;;;;;10.73;3.53;;;20.30;25.90;;;;;;5052771;28;46553;-61
2022/06/14 07:14:06;;;;;;;10.83;3.33;;;20.50;25.90;;;;;;5055975;28;46466;-60
2022/06/14 07:16:47;;;;;;;7.80;3.03;;;20.60;25.90;;;;;;5049667;28;46450;-62
2022/06/14 07:19:28;;;;;;;10.60;3.53;;;20.60;26.70;;;;;;5053181;28;46376;-60
2022/06/14 07:22:08;;;;;;;7.03;3.30;;;20.90;25.40;;;;;;5058338;28;46468;-62
2022/06/14 07:25:10;;;;;;;9.13;3.53;;;21.00;25.00;;;;;;5054783;28;46557;-61
2022/06/14 07:27:55;;;;;;;6.90;3.30;;;21.00;25.00;;;;;;5051302;28;46373;-61
2022/06/14 07:30:23;;;;;;;11.70;3.30;;;21.10;25.40;;;;;;5053481;28;46417;-61
2022/06/14 07:32:53;;;;;;;10.50;3.20;;;21.40;24.60;;;;;;5052859;28;46456;-62
2022/06/14 07:35:26;;;;;;;14.83;3.50;;;21.30;24.40;;;;;;5054156;28;46499;-61
2022/06/14 07:38:20;;;;;;;8.60;3.13;;;21.30;24.30;;;;;;5054295;28;45802;-62
2022/06/14 07:41:08;;;;;;;10.87;3.53;;;21.50;24.30;;;;;;5052723;28;45874;-62
2022/06/14 07:43:53;;;;;;;9.50;3.47;;;21.50;24.40;;;;;;5050441;28;46470;-62
2022/06/14 07:46:27;;;;;;;12.47;3.73;;;21.90;23.80;;;;;;5049552;28;47278;-61
2022/06/14 07:49:13;;;;;;;18.73;3.50;;;22.00;23.90;;;;;;5051297;28;46553;-61
2022/06/14 07:51:46;;;;;;;10.70;3.07;;;21.90;23.60;;;;;;5051098;28;46443;-61
2022/06/14 07:54:21;;;;;;;9.43;3.27;;;22.00;23.20;;;;;;5050014;28;46464;-61
2022/06/14 07:57:03;;;;;;;18.20;3.77;;;22.00;23.80;;;;;;5050760;28;46402;-62
2022/06/14 07:59:34;;;;;;;9.80;3.00;;;22.20;24.00;;;;;;5056534;28;45818;-62
2022/06/14 08:02:08;;;;;;;6.70;2.50;;;22.30;22.90;;;;;;5054745;28;46496;-61
2022/06/14 08:04:45;;;;;;;7.97;3.23;;;22.30;23.50;;;;;;5053385;28;46409;-61
2022/06/14 08:07:17;;;;;;;8.87;3.20;;;22.30;22.70;;;;;;5051399;28;47076;-61
2022/06/14 08:10:10;;;;;;;6.50;3.30;;;22.30;22.60;;;;;;5053257;28;46448;-61
2022/06/14 08:12:45;;;;;;;10.23;2.93;;;22.30;22.40;;;;;;5054622;28;46429;-60
2022/06/14 08:15:16;;;;;;;7.63;3.60;;;22.50;22.30;;;;;;5053285;28;46471;-61
2022/06/14 08:18:00;;;;;;;6.93;2.80;;;22.80;22.10;;;;;;5054035;28;47048;-61
2022/06/14 08:20:47;;;;;;;7.97;2.90;;;22.80;21.50;;;;;;5050266;28;46489;-60
2022/06/14 08:23:18;;;;;;;8.13;3.17;;;23.00;21.70;;;;;;5054219;28;45748;-61
2022/06/14 08:25:48;;;;;;;9.77;3.57;;;22.90;21.10;;;;;;5052633;28;45889;-61
2022/06/14 08:28:31;;;;;;;5.63;2.90;;;23.10;20.60;;;;;;5053051;27;47399;-60
2022/06/14 08:31:04;;;;;;;10.33;3.00;;;23.10;20.30;;;;;;5053696;28;46507;-62
2022/06/14 08:33:48;;;;;;;11.33;3.00;;;22.90;20.30;;;;;;5049970;28;46482;-61
2022/06/14 08:36:20;;;;;;;10.07;3.10;;;22.80;20.50;;;;;;5055181;28;46415;-61
2022/06/14 08:38:54;;;;;;;10.20;3.60;;;22.80;20.10;;;;;;5062275;28;47159;-60
2022/06/14 08:41:45;;;;;;;8.27;3.00;;;22.80;20.00;;;;;;5054407;28;46507;-61
2022/06/14 08:44:22;;;;;;;10.23;3.40;;;22.80;20.30;;;;;;5052786;28;46361;-62
2022/06/14 08:47:11;;;;;;;7.83;3.07;;;22.70;20.30;;;;;;5053179;28;46482;-61
2022/06/14 08:49:43;;;;;;;7.40;2.67;;;22.60;20.10;;;;;;5054151;28;48037;-61
2022/06/14 08:52:39;;;;;;;7.30;3.00;;;22.50;20.20;;;;;;5051770;28;46278;-60
2022/06/14 08:55:25;;;;;;;10.43;3.10;;;22.40;19.80;;;;;;5052159;28;46383;-62
2022/06/14 08:58:14;;;;;;;9.00;3.10;;;22.40;19.70;;;;;;5051577;28;46353;-63
2022/06/14 09:01:12;;;;;;;12.63;3.27;;;22.40;19.60;;;;;;5050037;28;48163;-62
2022/06/14 09:04:16;;;;;;;9.37;3.10;;;22.50;19.60;;;;;;5053993;28;46406;-60
2022/06/14 09:06:54;;;;;;;8.90;2.80;;;22.60;19.40;;;;;;5052073;28;46449;-60
2022/06/14 09:09:38;;;;;;;6.00;2.40;;;22.30;19.20;;;;;;5054581;28;46757;-60
2022/06/14 09:12:27;;;;;;;8.17;2.77;;;22.30;18.90;;;;;;5054162;28;46205;-61
2022/06/14 09:15:16;;;;;;;10.90;3.00;;;22.50;18.90;;;;;;5053368;28;46409;-61
2022/06/14 09:17:57;;;;;;;10.90;2.83;;;22.90;19.00;;;;;;5051523;28;46528;-62
2022/06/14 09:20:49;;;;;;;8.43;2.83;;;23.30;18.50;;;;;;5053049;28;46413;-61
2022/06/14 09:23:59;;;;;;;12.37;3.10;;;23.20;18.70;;;;;;5052009;28;47158;-61
2022/06/14 09:26:54;;;;;;;8.67;3.30;;;23.10;18.80;;;;;;5052807;28;46256;-62
2022/06/14 09:29:28;;;;;;;8.20;3.33;;;23.20;19.20;;;;;;5050131;28;46803;-60
2022/06/14 09:32:24;;;;;;;8.37;3.23;;;23.30;19.40;;;;;;5052052;28;46831;-61
2022/06/14 09:35:14;;;;;;;9.40;3.23;;;23.20;19.10;;;;;;5049377;28;47270;-61
2022/06/14 09:38:10;;;;;;;8.30;3.00;;;23.20;19.40;;;;;;5051617;28;46467;-60
2022/06/14 09:40:47;;;;;;;8.50;3.13;;;23.30;19.30;;;;;;5049530;28;47122;-61
2022/06/14 09:43:36;;;;;;;8.87;3.20;;;23.40;19.10;;;;;;5053981;28;46402;-61
2022/06/14 09:46:10;;;;;;;6.43;2.73;;;23.20;19.20;;;;;;5047993;28;47035;-60
2022/06/14 09:48:43;;;;;;;13.50;3.50;;;23.00;19.80;;;;;;5050874;28;46393;-60
2022/06/14 09:51:26;;;;;;;9.20;2.90;;;23.00;19.90;;;;;;5049142;28;46369;-61
2022/06/14 09:53:57;;;;;;;9.50;3.33;;;22.90;19.70;;;;;;5052930;28;46471;-60
2022/06/14 09:56:38;;;;;;;5.50;2.60;;;22.90;19.90;;;;;;5054140;28;46670;-62
2022/06/14 09:59:29;;;;;;;10.80;3.90;;;23.10;19.70;;;;;;5050202;28;46371;-60
2022/06/14 10:01:58;;;;;;;5.50;2.80;;;23.10;19.30;;;;;;5050765;28;46951;-61
2022/06/14 10:04:41;;;;;;;15.60;2.80;;;23.00;19.30;;;;;;5052621;28;46576;-62
2022/06/14 10:07:31;;;;;;;6.03;3.00;;;23.10;19.20;;;;;;5051110;28;46240;-60
2022/06/14 10:10:06;;;;;;;9.60;3.63;;;23.20;19.90;;;;;;5049174;28;46384;-60
2022/06/14 10:13:12;;;;;;;10.90;3.17;;;23.30;18.60;;;;;;5050752;28;46459;-60
2022/06/14 10:16:06;;;;;;;9.50;3.30;;;22.90;18.30;;;;;;5048925;28;46392;-62
2022/06/14 10:19:03;;;;;;;8.13;3.17;;;22.90;18.20;;;;;;5049743;28;47399;-60
2022/06/14 10:21:46;;;;;;;8.73;2.77;;;22.90;18.10;;;;;;5055120;28;46420;-60
2022/06/14 10:24:30;;;;;;;5.00;2.90;;;23.00;18.10;;;;;;5054021;28;46472;-62
2022/06/14 10:30:14;;;;;;;7.43;2.30;;;22.90;17.80;;;;;;5049894;28;46680;-61
2022/06/14 10:33:07;;;;;;;6.03;2.43;;;23.00;17.80;;;;;;5050423;28;46468;-62
2022/06/14 10:36:11;;;;;;;8.80;2.80;;;23.00;17.40;;;;;;5055040;28;45750;-61
2022/06/14 10:38:45;;;;;;;8.90;3.30;;;23.00;17.00;;;;;;5046017;28;46376;-62
2022/06/14 10:41:30;;;;;;;8.57;2.63;;;23.10;16.40;;;;;;5056170;28;48202;-64
2022/06/14 10:44:02;;;;;;;9.47;2.80;;;23.20;16.40;;;;;;5052391;28;46431;-63
2022/06/14 10:46:43;;;;;;;8.00;2.60;;;23.50;16.10;;;;;;5052371;28;46914;-62
2022/06/14 10:49:33;;;;;;;8.37;2.60;;;23.80;16.30;;;;;;5054007;28;46753;-62
2022/06/14 10:52:24;;;;;;;7.90;2.57;;;23.50;15.60;;;;;;5051619;28;46542;-62
2022/06/14 10:55:17;;;;;;;6.77;2.20;;;23.20;14.20;;;;;;5050427;28;46606;-62
2022/06/14 10:58:01;;;;;;;9.07;2.83;;;23.20;14.50;;;;;;5056066;27;45794;-61
2022/06/14 11:00:50;;;;;;;9.50;2.53;;;23.50;14.80;;;;;;5054696;28;46274;-62
2022/06/14 11:03:44;;;;;;;8.43;2.90;;;23.40;15.20;;;;;;5053250;28;46335;-62
2022/06/14 11:06:46;;;;;;;6.50;2.63;;;23.30;15.50;;;;;;5058645;28;46369;-62
2022/06/14 11:09:30;;;;;;;11.70;3.70;;;23.20;15.80;;;;;;5053527;28;46448;-62
2022/06/14 11:12:07;;;;;;;12.17;2.97;;;23.30;15.90;;;;;;5056550;28;46537;-61
2022/06/14 11:14:54;;;;;;;5.33;2.63;;;23.40;15.40;;;;;;5055358;28;46384;-61
2022/06/14 11:17:32;;;;;;;11.23;3.53;;;23.50;14.90;;;;;;5050754;28;46425;-61
2022/06/14 11:20:12;;;;;;;7.47;2.40;;;23.40;14.60;;;;;;5055149;28;46784;-62
2022/06/14 11:22:56;;;;;;;5.30;2.50;;;23.60;14.40;;;;;;5055646;28;46311;-61
2022/06/14 11:25:27;;;;;;;6.13;2.20;;;23.80;14.10;;;;;;5055298;28;46372;-60
2022/06/14 11:28:08;;;;;;;6.63;2.70;;;23.80;14.00;;;;;;5058773;28;46693;-61
2022/06/14 11:31:06;;;;;;;6.43;2.13;;;23.70;14.00;;;;;;5054134;28;45751;-62
2022/06/14 11:33:47;;;;;;;7.77;2.40;;;23.60;13.90;;;;;;5044188;28;46606;-61
2022/06/14 11:36:31;;;;;;;8.97;2.87;;;23.60;13.90;;;;;;5052321;28;47210;-61
2022/06/14 11:39:03;;;;;;;5.70;2.47;;;23.50;13.80;;;;;;5053326;28;45879;-62
2022/06/14 11:41:34;;;;;;;6.17;2.43;;;23.80;13.90;;;;;;5053789;28;46405;-63
2022/06/14 11:43:59;;;;;;;11.00;2.90;;;23.90;14.10;;;;;;5052281;28;46351;-62
2022/06/14 11:46:52;;;;;;;7.33;2.90;;;24.20;14.10;;;;;;5051999;28;46487;-61
2022/06/14 11:49:37;;;;;;;11.13;2.90;;;24.00;14.10;;;;;;5053496;28;46409;-62
2022/06/14 11:52:08;;;;;;;8.57;2.87;;;23.80;14.00;;;;;;5054841;28;46348;-61
2022/06/14 11:55:04;;;;;;;9.50;3.30;;;24.00;14.20;;;;;;5053343;28;46776;-62
2022/06/14 11:58:07;;;;;;;6.07;2.60;;;23.90;14.10;;;;;;5052859;28;46418;-62
2022/06/14 12:00:44;;;;;;;6.83;2.90;;;24.10;14.20;;;;;;5053516;28;46243;-62
2022/06/14 12:03:44;;;;;;;6.63;2.33;;;24.30;14.40;;;;;;5052577;28;46434;-62
2022/06/14 12:06:36;;;;;;;7.50;2.50;;;24.40;14.40;;;;;;5053743;28;45856;-63
2022/06/14 12:09:31;;;;;;;8.70;2.40;;;24.40;14.50;;;;;;5051008;28;46546;-62
2022/06/14 12:12:02;;;;;;;6.60;2.90;;;24.30;14.00;;;;;;5054191;28;46373;-62
2022/06/14 12:14:51;;;;;;;5.40;2.83;;;24.10;14.20;;;;;;5050312;28;46449;-62
2022/06/14 12:17:25;;;;;;;8.80;2.33;;;24.10;13.60;;;;;;5054229;28;46338;-62
2022/06/14 12:20:04;;;;;;;5.03;2.50;;;24.20;13.20;;;;;;5049676;28;46660;-63
2022/06/14 12:22:57;;;;;;;8.10;3.27;;;24.20;13.30;;;;;;5061922;28;45772;-63
2022/06/14 12:28:45;;;;;;;7.87;2.43;;;24.60;13.20;;;;;;5051501;28;46381;-61
2022/06/14 12:31:40;;;;;;;7.13;2.43;;;24.70;13.20;;;;;;5050866;28;47306;-62
2022/06/14 12:34:20;;;;;;;7.33;2.57;;;24.40;13.50;;;;;;5051403;28;46294;-61
2022/06/14 12:36:50;;;;;;;5.50;2.30;;;24.40;13.50;;;;;;5052685;28;46404;-60
2022/06/14 12:39:27;;;;;;;5.07;2.73;;;24.50;13.60;;;;;;5052462;28;46353;-62
2022/06/14 12:42:27;;;;;;;8.73;2.30;;;24.40;13.30;;;;;;5052618;28;46492;-62
2022/06/14 12:44:58;;;;;;;8.80;2.87;;;24.30;13.40;;;;;;5049217;28;46324;-62
2022/06/14 12:47:42;;;;;;;6.00;2.13;;;24.30;13.40;;;;;;5052426;28;46497;-63
2022/06/14 12:50:30;;;;;;;6.40;2.50;;;24.40;13.20;;;;;;5052270;28;47239;-61
2022/06/14 12:53:05;;;;;;;5.77;2.90;;;24.40;12.90;;;;;;5051918;28;46330;-63
2022/06/14 12:55:40;;;;;;;6.10;2.03;;;24.30;13.00;;;;;;5051709;28;46561;-62
2022/06/14 12:58:17;;;;;;;6.47;2.30;;;24.20;12.80;;;;;;5048545;28;46934;-63
2022/06/14 13:00:46;;;;;;;5.40;2.53;;;24.20;13.30;;;;;;5052253;28;46464;-62
2022/06/14 13:03:45;;;;;;;6.30;2.23;;;24.40;13.30;;;;;;5049298;28;46244;-62
2022/06/14 13:06:20;;;;;;;5.50;2.50;;;24.60;13.30;;;;;;5052500;28;46873;-61
2022/06/14 13:08:58;;;;;;;8.43;2.50;;;24.60;12.50;;;;;;5053216;28;46545;-62
2022/06/14 13:11:46;;;;;;;8.83;2.60;;;24.40;12.70;;;;;;5051667;28;46478;-62
2022/06/14 13:14:20;;;;;;;6.60;2.00;;;24.20;12.10;;;;;;5049193;28;47585;-62
2022/06/14 13:17:08;;;;;;;4.23;2.17;;;24.30;12.20;;;;;;5055176;28;46308;-62
2022/06/14 13:19:37;;;;;;;6.10;2.40;;;24.20;11.90;;;;;;5045413;28;46490;-61
2022/06/14 13:22:20;;;;;;;7.97;2.30;;;24.20;12.00;;;;;;5052872;27;47444;-62
2022/06/14 13:25:21;;;;;;;7.73;2.13;;;24.40;11.60;;;;;;5049067;28;46437;-62
2022/06/14 13:28:11;;;;;;;7.90;2.43;;;24.40;11.50;;;;;;5051943;28;46436;-61
2022/06/14 13:31:03;;;;;;;11.43;2.40;;;24.60;11.40;;;;;;5047931;28;46540;-62
2022/06/14 13:33:56;;;;;;;6.67;2.57;;;24.60;11.40;;;;;;5056362;28;46373;-62
2022/06/14 13:36:44;;;;;;;5.37;1.97;;;24.40;11.40;;;;;;5054859;28;47114;-63
2022/06/14 13:39:30;;;;;;;4.20;2.20;;;24.40;11.40;;;;;;5053339;28;45865;-60
2022/06/14 13:42:03;;;;;;;6.37;2.30;;;24.20;11.20;;;;;;5057220;28;46457;-61
2022/06/14 13:44:56;;;;;;;8.60;2.80;;;24.40;11.40;;;;;;5049482;28;46368;-60
2022/06/14 13:47:37;;;;;;;9.40;2.60;;;24.60;11.20;;;;;;5045885;28;46387;-61
2022/06/14 13:50:09;;;;;;;4.20;2.10;;;24.70;11.20;;;;;;5051235;28;46319;-62
2022/06/14 13:52:49;;;;;;;4.93;2.60;;;24.60;10.90;;;;;;5050664;28;46310;-63
2022/06/14 13:55:55;;;;;;;6.47;2.70;;;24.60;11.00;;;;;;5055850;28;46718;-62
2022/06/14 13:58:30;;;;;;;6.33;2.70;;;24.50;11.20;;;;;;5040824;28;46632;-62
2022/06/14 14:00:58;;;;;;;5.60;2.40;;;24.40;10.80;;;;;;5056418;28;46692;-62
2022/06/14 14:03:43;;;;;;;5.00;2.30;;;24.40;11.00;;;;;;5054371;28;46287;-62
2022/06/14 14:06:14;;;;;;;7.47;2.40;;;24.30;11.10;;;;;;5052462;28;46426;-62